地図

経路データ

SID SEASON NUMBER BASIN SUBBASIN NAME ISO_TIME NATURE LAT LON WMO_WIND WMO_PRES WMO_AGENCY TRACK_TYPE DIST2LAND LANDFALL IFLAG USA_AGENCY USA_ATCF_ID USA_LAT USA_LON USA_RECORD USA_STATUS USA_WIND USA_PRES USA_SSHS USA_R34_NE USA_R34_SE USA_R34_SW USA_R34_NW USA_R50_NE USA_R50_SE USA_R50_SW USA_R50_NW USA_R64_NE USA_R64_SE USA_R64_SW USA_R64_NW USA_POCI USA_ROCI USA_RMW USA_EYE TOKYO_LAT TOKYO_LON TOKYO_GRADE TOKYO_WIND TOKYO_PRES TOKYO_R50_DIR TOKYO_R50_LONG TOKYO_R50_SHORT TOKYO_R30_DIR TOKYO_R30_LONG TOKYO_R30_SHORT TOKYO_LAND CMA_LAT CMA_LON CMA_CAT CMA_WIND CMA_PRES HKO_LAT HKO_LON HKO_CAT HKO_WIND HKO_PRES NEWDELHI_LAT NEWDELHI_LON NEWDELHI_GRADE NEWDELHI_WIND NEWDELHI_PRES NEWDELHI_CI NEWDELHI_DP NEWDELHI_POCI REUNION_LAT REUNION_LON REUNION_TYPE REUNION_WIND REUNION_PRES REUNION_TNUM REUNION_CI REUNION_RMW REUNION_R34_NE REUNION_R34_SE REUNION_R34_SW REUNION_R34_NW REUNION_R50_NE REUNION_R50_SE REUNION_R50_SW REUNION_R50_NW REUNION_R64_NE REUNION_R64_SE REUNION_R64_SW REUNION_R64_NW BOM_LAT BOM_LON BOM_TYPE BOM_WIND BOM_PRES BOM_TNUM BOM_CI BOM_RMW BOM_R34_NE BOM_R34_SE BOM_R34_SW BOM_R34_NW BOM_R50_NE BOM_R50_SE BOM_R50_SW BOM_R50_NW BOM_R64_NE BOM_R64_SE BOM_R64_SW BOM_R64_NW BOM_ROCI BOM_POCI BOM_EYE BOM_POS_METHOD BOM_PRES_METHOD NADI_LAT NADI_LON NADI_CAT NADI_WIND NADI_PRES WELLINGTON_LAT WELLINGTON_LON WELLINGTON_WIND WELLINGTON_PRES DS824_LAT DS824_LON DS824_STAGE DS824_WIND DS824_PRES TD9636_LAT TD9636_LON TD9636_STAGE TD9636_WIND TD9636_PRES TD9635_LAT TD9635_LON TD9635_WIND TD9635_PRES TD9635_ROCI NEUMANN_LAT NEUMANN_LON NEUMANN_CLASS NEUMANN_WIND NEUMANN_PRES MLC_LAT MLC_LON MLC_CLASS MLC_WIND MLC_PRES USA_GUST BOM_GUST BOM_GUST_PER REUNION_GUST REUNION_GUST_PER USA_SEAHGT USA_SEARAD_NE USA_SEARAD_SE USA_SEARAD_SW USA_SEARAD_NW STORM_SPEED STORM_DIR
2000060S12086 2000 15 SI MM NOT_NAMED 2000-02-29 06:00:00 TS -12.2000 85.8000 main 1863 1844 O___________O_ jtwc_sh SH172000 -12.2000 85.8000 20 -1 -12.2000 85.8000 TC 20 7 99
2000060S12086 2000 15 SI MM NOT_NAMED 2000-02-29 09:00:00 TS -12.2525 86.1375 main 1844 1829 P___________P_ SH172000 -12.2525 86.1375 20 -1 -12.2525 86.1375 TC 20 4 87
2000060S12086 2000 15 SI MM NOT_NAMED 2000-02-29 12:00:00 TS -12.1750 86.2500 25 1000 reunion main 1820 1787 O____O______O_ jtwc_sh SH172000 -12.3000 86.5000 20 -1 -11.8000 85.5000 2 25 1000 2.00000 2.00000 -12.3000 86.5000 TC 20 5 86
2000060S12086 2000 15 SI MM NOT_NAMED 2000-02-29 15:00:00 TS -12.2118 86.6916 main 1787 1761 P____P______P_ SH172000 -12.3426 86.8875 20 -1 -11.9503 86.2999 2 25 1000 -12.3426 86.8875 TC 20 9 96
2000060S12086 2000 15 SI MM NOT_NAMED 2000-02-29 18:00:00 TS -12.2714 87.1571 25 1000 reunion main 1753 1729 O____O______O_ jtwc_sh SH172000 -12.4000 87.2000 20 -1 -12.1000 87.1000 2 25 1000 2.00000 2.00000 -12.4000 87.2000 TC 20 9 100
2000060S12086 2000 15 SI MM NOT_NAMED 2000-02-29 21:00:00 TS -12.3638 87.6000 main 1729 1713 P____P______P_ SH172000 -12.4774 87.3375 22 -1 -12.2501 87.8624 2 25 1000 -12.4774 87.3375 TC 22 8 108
2000060S12086 2000 15 SI MM NOT_NAMED 2000-03-01 00:00:00 TS -12.5000 87.9000 25 1000 reunion main 1713 1705 O____O______O_ jtwc_sh SH172000 -12.6000 87.4000 25 -1 -12.4000 88.4000 2 25 1000 2.00000 2.00000 -12.6000 87.4000 TC 25 5 125
2000060S12086 2000 15 SI MM NOT_NAMED 2000-03-01 03:00:00 TS -12.6749 88.0500 main 1713 1713 P____P______P_ SH172000 -12.8150 87.5299 27 -1 -12.5347 88.5701 2 25 1000 -12.8150 87.5299 TC 27 4 157
2000060S12086 2000 15 SI MM NOT_NAMED 2000-03-01 06:00:00 TS -12.8500 88.0500 25 1000 reunion main 1721 1729 O____O______O_ jtwc_sh SH172000 -13.0000 87.6000 30 -1 -12.7000 88.5000 2 25 1000 2.00000 2.00000 -13.0000 87.6000 TC 30 3 195
2000060S12086 2000 15 SI MM NOT_NAMED 2000-03-01 09:00:00 TS -12.9975 87.9588 main 1745 1745 P____P______P_ SH172000 -13.0300 87.5225 30 -1 -12.9650 88.3951 2 25 999 -13.0300 87.5225 TC 30 4 224
2000060S12086 2000 15 SI MM NOT_NAMED 2000-03-01 12:00:00 TS -13.1000 87.8000 25 999 reunion main 1768 1768 O____O______O_ jtwc_sh SH172000 -13.0000 87.4000 30 -1 -13.2000 88.2000 2 25 999 2.00000 2.00000 -13.0000 87.4000 TC 30 3 244
2000060S12086 2000 15 SI MM NOT_NAMED 2000-03-01 15:00:00 TS -13.1438 87.6575 main 1775 1775 P____P______P_ SH172000 -13.0000 87.3725 30 -1 -13.2876 87.9425 2 25 999 -13.0000 87.3725 TC 30 3 260
2000060S12086 2000 15 SI MM NOT_NAMED 2000-03-01 18:00:00 TS -13.1500 87.5000 25 999 reunion main 1791 1791 O____O______O_ jtwc_sh SH172000 -13.0000 87.3000 30 -1 -13.3000 87.7000 2 25 999 2.00000 2.00000 -13.0000 87.3000 TC 30 3 274
2000060S12086 2000 15 SI MM NOT_NAMED 2000-03-01 21:00:00 TS -13.1238 87.3249 main 1806 1806 P____P______P_ SH172000 -12.9551 87.0649 30 -1 -13.2924 87.5850 2 27 998 -12.9551 87.0649 TC 30 3 270
2000060S12086 2000 15 SI MM NOT_NAMED 2000-03-02 00:00:00 TS -13.1500 87.1500 30 998 reunion main 1814 1814 O____O______O_ jtwc_sh SH172000 -13.0000 86.8000 30 -1 -13.3000 87.5000 2 30 998 2.50000 2.50000 -13.0000 86.8000 TC 30 4 237
2000060S12086 2000 15 SI MM NOT_NAMED 2000-03-02 03:00:00 TS -13.3199 87.0187 main 1845 1845 P____P______P_ SH172000 -13.2775 86.6351 32 -1 -13.3624 87.4023 2 30 998 -13.2775 86.6351 TC 32 5 216
2000060S12086 2000 15 SI MM NOT_NAMED 2000-03-02 06:00:00 TS -13.5500 86.8500 30 998 reunion main 1869 1876 O____O______O_ jtwc_sh SH172000 -13.6000 86.5000 35 0 -13.5000 87.2000 2 30 998 2.50000 2.50000 -13.6000 86.5000 TC 35 6 225
2000060S12086 2000 15 SI MM NOT_NAMED 2000-03-02 09:00:00 TS -13.7576 86.5651 main 1915 1915 P____P______P_ SH172000 -13.7799 86.3724 35 0 -13.7353 86.7578 2 30 998 -13.7799 86.3724 TC 35 7 236
2000060S12086 2000 15 SI MM NOT_NAMED 2000-03-02 12:00:00 TS -13.9500 86.2500 30 998 reunion main 1946 1946 O____O______O_ jtwc_sh SH172000 -13.9000 86.2000 35 0 -14.0000 86.3000 2 30 998 2.50000 2.50000 -13.9000 86.2000 TC 35 6 239
2000060S12086 2000 15 SI MM NOT_NAMED 2000-03-02 15:00:00 TS -14.0887 85.9924 main 1985 1985 P____P______P_ SH172000 -13.9849 85.9448 35 0 -14.1924 86.0399 2 30 998 -13.9849 85.9448 TC 35 6 238
2000060S12086 2000 15 SI MM NOT_NAMED 2000-03-02 18:00:00 TS -14.2500 85.7500 30 998 reunion main 2009 2016 O____O______O_ jtwc_sh SH172000 -14.1000 85.6000 35 0 -14.4000 85.9000 2 30 998 2.00000 2.50000 -14.1000 85.6000 TC 35 6 230
2000060S12086 2000 15 SI MM NOT_NAMED 2000-03-02 21:00:00 TS -14.4988 85.4850 main 2055 2055 P____P______P_ SH172000 -14.3128 85.1127 32 -1 -14.6849 85.8573 2 30 998 -14.3128 85.1127 TC 32 7 221
2000060S12086 2000 15 SI MM NOT_NAMED 2000-03-03 00:00:00 TS -14.8000 85.2500 30 998 reunion main 2094 2094 O____O______O_ jtwc_sh SH172000 -14.6000 84.7000 30 -1 -15.0000 85.8000 2 30 998 2.00000 2.50000 -14.6000 84.7000 TC 30 7 210
2000060S12086 2000 15 SI MM NOT_NAMED 2000-03-03 03:00:00 TS -15.1286 85.1074 main 2133 2133 P____P______P_ SH172000 -14.9423 84.6047 30 -1 -15.3149 85.6100 2 30 998 -14.9423 84.6047 TC 30 7 204
2000060S12086 2000 15 SI MM NOT_NAMED 2000-03-03 06:00:00 TS -15.4500 84.9500 30 998 reunion main 2163 2179 O____O______O_ jtwc_sh SH172000 -15.3000 84.6000 30 -1 -15.6000 85.3000 2 30 998 2.50000 2.50000 -15.3000 84.6000 TC 30 8 215
2000060S12086 2000 15 SI MM NOT_NAMED 2000-03-03 09:00:00 TS -15.7414 84.6651 main 2210 2210 P____P______P_ SH172000 -15.6374 84.4875 30 -1 -15.8453 84.8427 2 30 998 -15.6374 84.4875 TC 30 8 229
2000060S12086 2000 15 SI MM NOT_NAMED 2000-03-03 12:00:00 TS -15.9500 84.3500 30 998 reunion main 2249 2256 O____O______O_ jtwc_sh SH172000 -15.9000 84.3000 30 -1 -16.0000 84.4000 2 30 998 2.50000 2.50000 -15.9000 84.3000 TC 30 6 241
2000060S12086 2000 15 SI MM NOT_NAMED 2000-03-03 15:00:00 TS -16.0449 84.0962 main 2280 2280 P____P______P_ SH172000 -16.0525 84.0225 27 -1 -16.0373 84.1699 2 30 998 -16.0525 84.0225 TC 27 5 258
2000060S12086 2000 15 SI MM NOT_NAMED 2000-03-03 18:00:00 TS -16.0500 83.8500 30 998 reunion main 2295 2303 O____O______O_ jtwc_sh SH172000 -16.1000 83.7000 25 -1 -16.0000 84.0000 2 30 998 2.00000 2.50000 -16.1000 83.7000 TC 25 5 273
2000060S12086 2000 15 SI MM NOT_NAMED 2000-03-03 21:00:00 TS -16.0187 83.5825 main 2319 2319 P____P______P_ SH172000 -16.0725 83.3924 25 -1 -15.9649 83.7725 2 30 998 -16.0725 83.3924 TC 25 5 281
2000060S12086 2000 15 SI MM NOT_NAMED 2000-03-04 00:00:00 TS -15.9500 83.3000 30 998 reunion main 2335 2335 O____O______O_ jtwc_sh SH172000 -16.0000 83.1000 25 -1 -15.9000 83.5000 2 30 998 2.00000 2.50000 -16.0000 83.1000 TC 25 6 286
2000060S12086 2000 15 SI MM NOT_NAMED 2000-03-04 03:00:00 TS -15.8562 83.0074 main 2360 2352 P____P______P_ SH172000 -15.9124 82.8424 25 -1 -15.8000 83.1724 2 30 998 -15.9124 82.8424 TC 25 6 285
2000060S12086 2000 15 SI MM NOT_NAMED 2000-03-04 06:00:00 TS -15.8000 82.7000 30 998 reunion main 2377 2377 O____O______O_ jtwc_sh SH172000 -15.9000 82.6000 25 -1 -15.7000 82.8000 2 30 998 2.50000 2.50000 -15.9000 82.6000 TC 25 6 269
2000060S12086 2000 15 SI MM NOT_NAMED 2000-03-04 09:00:00 TS -15.8713 82.3639 main 2409 2409 P____P______P_ SH172000 -16.0999 82.3577 25 -1 -15.6426 82.3700 2 30 998 -16.0999 82.3577 TC 25 6 257
2000060S12086 2000 15 SI MM NOT_NAMED 2000-03-04 12:00:00 TS -15.9500 82.0500 30 998 reunion main 2433 2433 O____O______O_ jtwc_sh SH172000 -16.3000 82.1000 25 -1 -15.6000 82.0000 2 30 998 2.00000 2.50000 -16.3000 82.1000 TC 25 5 264
2000060S12086 2000 15 SI MM NOT_NAMED 2000-03-04 15:00:00 TS -15.9262 81.7987 main 2445 2444 P____P______P_ SH172000 -16.2951 81.7849 25 -1 -15.5574 81.8126 2 30 998 -16.2951 81.7849 TC 25 4 283
2000060S12086 2000 15 SI MM NOT_NAMED 2000-03-04 18:00:00 TS -15.8500 81.6000 30 998 reunion main 2433 2432 O____O______O_ jtwc_sh SH172000 -16.2000 81.5000 25 -1 -15.5000 81.7000 2 30 998 1.50000 2.50000 -16.2000 81.5000 TC 25 4 295
2000060S12086 2000 15 SI MM NOT_NAMED 2000-03-04 21:00:00 TS -15.7724 81.4501 main 2432 2420 P____P______P_ SH172000 -16.1374 81.3351 25 -1 -15.4075 81.5650 2 27 999 -16.1374 81.3351 TC 25 4 305
2000060S12086 2000 15 SI MM NOT_NAMED 2000-03-05 00:00:00 TS -15.6500 81.3000 25 1000 reunion main 2409 2398 O____O______O_ jtwc_sh SH172000 -16.0000 81.2000 25 -1 -15.3000 81.4000 2 25 1000 1.50000 2.00000 -16.0000 81.2000 TC 25 5 311
2000060S12086 2000 15 SI MM NOT_NAMED 2000-03-05 03:00:00 TS -15.4613 81.0749 main 2398 2375 P____P______P_ SH172000 -15.7150 80.9848 25 -1 -15.2075 81.1650 2 25 1000 -15.7150 80.9848 TC 25 6 313
2000060S12086 2000 15 SI MM NOT_NAMED 2000-03-05 06:00:00 TS -15.2500 80.8500 25 1000 reunion main 2364 2352 O____O______O_ jtwc_sh SH172000 -15.4000 80.8000 25 -1 -15.1000 80.9000 2 25 1000 2.00000 2.00000 -15.4000 80.8000 TC 25 6 316
2000060S12086 2000 15 SI MM NOT_NAMED 2000-03-05 09:00:00 TS -15.0675 80.6775 main 2352 2330 P____P______P_ SH172000 -15.1850 80.7276 25 -1 -14.9500 80.6274 2 25 1000 -15.1850 80.7276 TC 25 5 320
2000060S12086 2000 15 SI MM NOT_NAMED 2000-03-05 12:00:00 TS -14.9000 80.5500 25 1000 reunion main 2330 2319 O____O______O_ jtwc_sh SH172000 -15.0000 80.7000 25 -1 -14.8000 80.4000 2 25 1000 2.00000 2.00000 -15.0000 80.7000 TC 25 4 328
2000060S12086 2000 15 SI MM NOT_NAMED 2000-03-05 15:00:00 TS -14.7425 80.4638 main 2307 2296 P____P______P_ SH172000 -14.7925 80.6650 25 -1 -14.6925 80.2625 2 25 1000 -14.7925 80.6650 TC 25 3 335
2000060S12086 2000 15 SI MM NOT_NAMED 2000-03-05 18:00:00 TS -14.6000 80.4000 25 1000 reunion main 2296 2285 O____O______O_ jtwc_sh SH172000 -14.6000 80.6000 25 -1 -14.6000 80.2000 2 25 1000 2.00000 2.00000 -14.6000 80.6000 TC 25 3 332
2000060S12086 2000 15 SI MM NOT_NAMED 2000-03-05 21:00:00 TS -14.4563 80.3062 main 2285 2274 P____P______P_ SH172000 -14.4200 80.4424 25 -1 -14.4925 80.1700 2 27 999 -14.4200 80.4424 TC 25 3 330
2000060S12086 2000 15 SI MM NOT_NAMED 2000-03-06 00:00:00 TS -14.3500 80.2500 30 998 reunion main 2263 2263 O____O______O_ jtwc_sh SH172000 -14.3000 80.3000 25 -1 -14.4000 80.2000 2 30 998 2.50000 2.50000 -14.3000 80.3000 TC 25 2 348
2000060S12086 2000 15 SI MM NOT_NAMED 2000-03-06 03:00:00 TS -14.3062 80.2625 main 2263 2263 P____P______P_ SH172000 -14.2775 80.2700 25 -1 -14.3349 80.2550 2 30 998 -14.2775 80.2700 TC 25 1 65
2000060S12086 2000 15 SI MM NOT_NAMED 2000-03-06 06:00:00 TS -14.3000 80.3571 30 998 reunion main 2263 2263 O____O______O_ jtwc_sh SH172000 -14.3000 80.3000 25 -1 -14.3000 80.4000 2 30 998 2.50000 2.50000 -14.3000 80.3000 TC 25 3 84
2000060S12086 2000 15 SI MM NOT_NAMED 2000-03-06 09:00:00 TS -14.2775 80.5626 main 2263 2263 P____P______P_ SH172000 -14.3075 80.3475 22 -1 -14.2625 80.6701 2 30 998 -14.3075 80.3475 TC 22 5 90
2000060S12086 2000 15 SI MM NOT_NAMED 2000-03-06 12:00:00 TS -14.3000 80.8800 30 998 reunion main 2263 2263 O____O______O_ jtwc_sh SH172000 -14.3000 80.4000 20 -1 -14.3000 81.0000 2 30 998 2.00000 2.50000 -14.3000 80.4000 TC 20 7 107
2000060S12086 2000 15 SI MM NOT_NAMED 2000-03-06 15:00:00 TS -14.4924 81.2774 main 2286 2286 _____P________ SH172000 -1 -14.4924 81.2774 2 30 998 TC 8 120
2000060S12086 2000 15 SI MM NOT_NAMED 2000-03-06 18:00:00 TS -14.7000 81.6000 30 998 reunion main 2310 2310 _____O________ -1 -14.7000 81.6000 2 30 998 2.00000 2.50000 8 112
2000060S12086 2000 15 SI MM NOT_NAMED 2000-03-06 21:00:00 TS -14.7799 82.0126 main 2324 2323 _____P________ -1 -14.7799 82.0126 2 27 999 9 97
2000060S12086 2000 15 SI MM NOT_NAMED 2000-03-07 00:00:00 TS -14.8000 82.5000 25 1000 reunion main 2323 2281 _____O________ -1 -14.8000 82.5000 2 25 1000 2.00000 2.00000 10 91
2000060S12086 2000 15 SI MM NOT_NAMED 2000-03-07 03:00:00 TS -14.7924 83.0277 main 2281 2231 _____P________ -1 -14.7924 83.0277 2 25 1000 11 90
2000060S12086 2000 15 SI MM NOT_NAMED 2000-03-07 06:00:00 TS -14.8000 83.6000 25 1000 reunion main 2231 2189 _____O________ -1 -14.8000 83.6000 2 25 1000 2.00000 2.00000 12 95
2000060S12086 2000 15 SI MM NOT_NAMED 2000-03-07 09:00:00 TS -14.9001 84.2148 main 2189 2148 _____P________ -1 -14.9001 84.2148 2 25 1000 12 100
2000060S12086 2000 15 SI MM NOT_NAMED 2000-03-07 12:00:00 TS -15.0000 84.8000 25 1000 reunion main 2148 2109 _____O________ -1 -15.0000 84.8000 2 25 1000 2.00000 2.00000 10 97
2000060S12086 2000 15 SI MM NOT_NAMED 2000-03-07 15:00:00 TS -15.0223 85.2876 main 2109 2078 _____P________ -1 -15.0223 85.2876 2 25 1000 9 90
2000060S12086 2000 15 SI MM NOT_NAMED 2000-03-07 18:00:00 TS -15.0000 85.7000 25 1000 reunion main 2078 2048 _____O________ -1 -15.0000 85.7000 2 25 1000 1.50000 2.00000 8 85
2000060S12086 2000 15 SI MM NOT_NAMED 2000-03-07 21:00:00 TS -14.9575 86.0950 main 2048 2017 _____P________ -1 -14.9575 86.0950 2 25 1000 7 82
2000060S12086 2000 15 SI MM NOT_NAMED 2000-03-08 00:00:00 TS -14.9000 86.4000 25 1000 reunion main 2017 2003 _____O________ -1 -14.9000 86.4000 2 25 1000 1.50000 2.00000 5 78
2000060S12086 2000 15 SI MM NOT_NAMED 2000-03-08 03:00:00 TS -14.8574 86.5950 main 2003 1987 _____P________ -1 -14.8574 86.5950 2 22 1001 3 71
2000060S12086 2000 15 SI MM NOT_NAMED 2000-03-08 06:00:00 TS -14.8000 86.7000 20 1002 reunion main 1987 1972 _____O________ -1 -14.8000 86.7000 2 20 1002 1.50000 1.50000 2 47
2000060S12086 2000 15 SI MM NOT_NAMED 2000-03-08 09:00:00 TS -14.7075 86.7650 main 1972 1963 _____P________ -1 -14.7075 86.7650 2 20 1002 2 27
2000060S12086 2000 15 SI MM NOT_NAMED 2000-03-08 12:00:00 TS -14.6000 86.8000 20 1002 reunion main 1963 1955 _____O________ -1 -14.6000 86.8000 2 20 1002 9.90000 1.50000 2 21
2000060S12086 2000 15 SI MM NOT_NAMED 2000-03-08 15:00:00 TS -14.4925 86.8500 main 1948 1940 _____P________ -1 -14.4925 86.8500 2 20 1002 2 27
2000060S12086 2000 15 SI MM NOT_NAMED 2000-03-08 18:00:00 TS -14.4000 86.9000 20 1002 reunion main 1940 1940 _____O________ -1 -14.4000 86.9000 2 20 1002 9.90000 2 31
2000060S12086 2000 15 SI MM NOT_NAMED 2000-03-08 21:00:00 TS -14.3575 86.9350 main 1940 1924 _____P________ -1 -14.3575 86.9350 2 20 1002 1 43
2000060S12086 2000 15 SI MM NOT_NAMED 2000-03-09 00:00:00 TS -14.3000 87.0000 20 1003 reunion main 1924 1901 _____O________ -1 -14.3000 87.0000 2 20 1003 9.90000 3 38
2000060S12086 2000 15 SI MM NOT_NAMED 2000-03-09 03:00:00 TS -14.1275 87.1201 main 1901 1878 _____P________ -1 -14.1275 87.1201 2 20 1003 4 44
2000060S12086 2000 15 SI MM NOT_NAMED 2000-03-09 06:00:00 TS -14.0000 87.3000 20 1003 reunion main 1878 1863 _____O________ -1 -14.0000 87.3000 2 20 1003 9.90000 4 80
2000060S12086 2000 15 SI MM NOT_NAMED 2000-03-09 09:00:00 TS -14.0550 87.5349 main 1871 1856 _____P________ -1 -14.0550 87.5349 2 20 1003 5 112
2000060S12086 2000 15 SI MM NOT_NAMED 2000-03-09 12:00:00 TS -14.2000 87.8000 20 1003 reunion main 1857 1850 _____O________ -1 -14.2000 87.8000 2 20 1003 9.90000 6 121
2000060S12086 2000 15 SI MM NOT_NAMED 2000-03-09 15:00:00 TS -14.3424 88.0350 main 1851 1846 _____P________ -1 -14.3424 88.0350 2 20 1003 6 122
2000060S12086 2000 15 SI MM NOT_NAMED 2000-03-09 18:00:00 TS -14.5000 88.3000 20 1004 reunion main 1847 1835 _____O________ -1 -14.5000 88.3000 2 20 1004 9.90000 7 118
2000060S12086 2000 15 SI MM NOT_NAMED 2000-03-09 21:00:00 TS -14.6500 88.6350 main 1844 1824 _____P________ -1 -14.6500 88.6350 2 1004 7 114
2000060S12086 2000 15 SI MM NOT_NAMED 2000-03-10 00:00:00 TS -14.8000 89.0000 1005 reunion main 1826 1816 _____O________ -1 -14.8000 89.0000 6 1005 9.90000 8 114
2000060S12086 2000 15 SI MM NOT_NAMED 2000-03-10 03:00:00 TS -14.9575 89.3575 main 1818 1806 _____P________ -1 -14.9575 89.3575 6 1005 7 114
2000060S12086 2000 15 SI MM NOT_NAMED 2000-03-10 06:00:00 TS -15.1000 89.7000 1005 reunion main 1809 1800 _____O________ -1 -15.1000 89.7000 6 1005 9.90000 7 112
2000060S12086 2000 15 SI WA NOT_NAMED 2000-03-10 09:00:00 TS -15.2075 90.0151 main 1800 1792 _____P________ -1 -15.2075 90.0151 6 1005 6 109
2000060S12086 2000 15 SI WA NOT_NAMED 2000-03-10 12:00:00 TS -15.3000 90.3000 main 1792 1786 _____O________ -1 -15.3000 90.3000 6 1005 9.90000 6 111
2000060S12086 2000 15 SI WA NOT_NAMED 2000-03-10 15:00:00 TS -15.4074 90.5575 main 1784 1779 _____P________ -1 -15.4074 90.5575 6 1005 5 113
2000060S12086 2000 15 SI WA NOT_NAMED 2000-03-10 18:00:00 TS -15.5000 90.8000 main 1783 1772 _____O________ -1 -15.5000 90.8000 6 1006 9.90000 5 108
2000060S12086 2000 15 SI WA NOT_NAMED 2000-03-10 21:00:00 TS -15.5601 91.0475 main 1782 1766 _____P________ -1 -15.5601 91.0475 6 1006 5 102
2000060S12086 2000 15 SI WA NOT_NAMED 2000-03-11 00:00:00 TS -15.6000 91.3000 main 1766 _____O________ -1 -15.6000 91.3000 6 1006 9.90000 5 99

IBTrACS Databaseについて

本データベースは、米国NOAAが公開する1842年以降の世界の熱帯低気圧のベストトラックデータアーカイブInternational Best Track Archive for Climate Stewardship (IBTrACS)を、ウェブで閲覧しやすい形式に変換したものです。

最終更新日:2021-12-06